Station: Tasman Island

  Atmospheric Gas Attenuation - ITU Rec 676-11   --------------- db/100km ---------------
Date Time Temp RH % AH g/m3 Dew Point Wind Direction Speed kph Gust kph Barometer mB Rainfall Since 9am 24GHz 47GHz 76GHz 122GHz 134GHz 241GHz
22 14:20 19.6 68 11.48 13.7 17 24 1013.1 0 25.4 28.8 48.3 127.1 128.3 443.9
22 14:10 19.7 71 12.06 14.3 19 24 1013.1 0 26.6 29.7 50.6 133.3 136.0 470.8
22 14:00 19.7 73 12.39 14.7 17 28 1024.7 0 27.3 30.8 52.6 138.4 141.8 490.9
22 13:50 19.8 74 12.64 15 17 22 1013.1 0 27.9 30.7 53.0 139.6 143.8 498.1
22 13:40 19 77 12.55 15 17 20 1013.1 0 27.7 30.8 53.1 140.1 144.1 498.9
22 13:30 19.3 77 12.77 15.2 17 26 1024.9 0 28.1 31.6 54.5 143.5 147.9 512.2
22 13:20 19.3 78 12.94 15.5 19 22 1013.1 0 28.5 31.4 54.6 144.0 149.0 516.1
22 13:10 19 78 12.71 15.2 17 20 1013.1 0 28.1 31.1 53.8 141.9 146.3 506.7
22 13:00 19 81 13.2 15.7 17 24 1025.2 0 29.1 32.4 56.6 149.1 154.7 535.8
22 12:50 18.8 79 12.72 15.2 19 22 1013.1 0 28.1 31.2 54.0 142.4 146.9 508.5
22 12:40 19.7 79 13.41 15.9 22 26 1013.1 0 29.5 32.1 56.3 148.7 154.9 536.6
22 12:30 19.6 77 13 15.5 17 26 1025.4 0 28.6 31.9 55.3 145.7 150.7 521.8
22 12:20 19.9 73 12.54 14.9 19 22 1013.1 0 27.6 30.5 52.5 138.3 142.3 492.6
22 12:10 19.1 73 11.97 14.3 20 24 1013.1 0 26.5 29.8 50.6 133.3 135.8 470.1
22 12:00 19.8 74 12.64 15 19 24 1025.6 0 27.8 31.2 53.6 141.2 145.2 502.8
22 11:50 19.7 72 12.23 14.5 19 22 1013.1 0 27.0 30.0 51.3 135.2 138.3 478.9
22 11:40 19.7 71 12.06 14.3 17 19 1013.1 0 26.6 29.7 50.6 133.3 136.0 470.8
22 11:30 19.7 69 11.72 13.9 20 26 1025.6 0 25.9 29.7 49.8 131.0 132.7 459.0
22 11:20 19.9 68 11.68 13.8 19 20 1013.1 0 25.8 29.0 48.9 128.8 130.5 451.5
22 11:10 20.2 68 11.89 14.1 17 19 1013.1 0 26.2 29.3 49.6 130.6 132.8 459.7
22 11:00 19.6 68 11.48 13.5 15 22 1025.9 0 25.4 29.3 48.9 128.6 129.6 448.3
22 10:50 19.1 68 11.15 13.2 13 17 1013.1 0 24.7 28.4 47.2 124.3 124.7 431.2
22 10:40 18.8 70 11.27 13.2 15 17 1013.1 0 25.0 28.7 47.9 126.1 126.8 438.5
22 10:30 18.9 72 11.66 13.7 13 17 1026 0 25.8 29.8 50.1 131.8 133.3 461.0
22 10:20 19.2 74 12.2 14.6 15 17 1013.1 0 27.0 30.2 51.5 135.7 138.8 480.6
22 10:10 18.3 79 12.35 14.6 15 20 1013.1 0 27.3 30.7 52.7 139.0 142.6 493.5
22 10:00 18.6 77 12.25 14.5 9 13 1026.3 0 27.1 31.0 52.8 139.0 142.1 491.6
22 09:50 19.3 74 12.27 14.5 7 9 1013.1 0 27.1 30.2 51.7 136.4 139.6 483.3
22 09:40 18.7 73 11.69 13.9 6 7 1013.1 0 25.9 29.5 49.7 130.9 132.7 459.0
22 09:30 18.5 76 12.02 14.2 6 9 1026.5 0 26.6 30.6 51.9 136.6 139.0 481.0
22 09:20 18.2 74 11.5 13.5 4 6 1013.1 0 25.5 29.3 49.2 129.6 130.9 452.9
22 09:10 18.4 72 11.32 13.4 7 7 1013.1 0 25.1 28.9 48.3 127.3 128.1 443.1
22 09:00 18.4 74 11.64 13.7 9 15 1026.5 0 25.8 30.0 50.3 132.4 133.9 463.1
22 08:50 18 74 11.37 13.3 13 15 1013.1 0.2 25.3 29.2 48.8 128.5 129.5 447.8
22 08:40 17.6 77 11.55 13.5 15 17 1013.1 0.2 25.7 29.6 49.8 131.2 132.7 458.8
22 08:30 17.3 77 11.34 13.2 11 19 1026.4 0.2 25.2 29.9 49.8 130.9 131.6 455.0
22 08:20 17.1 80 11.64 13.6 11 13 1013.1 0.2 25.9 29.9 50.5 133.0 134.8 466.2
22 08:10 17.2 80 11.71 13.7 13 17 1013.1 0.2 26.1 30.0 50.7 133.7 135.6 469.0
22 08:00 16.9 82 11.79 13.8 9 13 1026.5 0.2 26.2 30.8 52.0 136.8 138.7 479.6
22 07:50 16.4 84 11.72 13.8 7 9 1013.1 0.2 26.1 30.3 51.3 135.2 137.2 474.4
22 07:40 16.2 87 12 14 9 11 1013.1 0.2 26.7 30.9 52.7 138.8 141.5 489.6
22 07:30 15.8 86 11.58 13.5 9 11 1026.6 0.2 25.8 30.8 51.8 136.3 137.7 476.0
22 07:20 15.6 86 11.44 13.2 9 11 1013.1 0.2 25.6 30.1 50.6 133.3 134.6 465.4
22 07:10 15.4 88 11.56 13.4 7 7 1013.1 0.2 25.8 30.4 51.3 135.1 136.7 472.6
22 07:00 15.1 89 11.48 13.3 9 11 1026.4 0.2 25.7 30.9 51.8 136.3 137.5 475.2
22 06:50 14.8 89 11.27 13 7 9 1013.1 0.2 25.3 30.1 50.4 132.7 133.6 461.7
22 06:40 14.7 88 11.08 12.7 11 13 1013.1 0.2 24.9 29.8 49.6 130.7 131.1 452.8
22 06:30 14.5 89 11.07 12.7 13 17 1026.2 0.2 24.8 30.3 50.4 132.5 132.6 458.1
22 06:20 13.6 91 10.71 12.1 13 15 1013.1 0.2 24.1 29.5 48.7 128.3 127.7 440.8
22 06:10 13.7 91 10.78 12.2 7 9 1013.1 0.2 24.3 29.6 49.0 128.9 128.5 443.7
22 06:00 13.6 91 10.71 12.2 7 9 1026.3 0.2 24.1 30.0 49.4 129.9 129.0 445.3
22 05:50 13.6 89 10.47 11.8 6 6 1013.1 0.2 23.6 29.1 47.7 125.5 124.3 428.9
22 05:40 14 83 10.01 11.1 7 7 1013.1 0.2 22.6 28.2 45.5 119.6 117.2 404.2
22 05:20 14.3 74 9.09 9.7 4 4 1013.1 0.2 20.6 26.5 41.5 109.0 104.2 359.0
22 05:10 15.3 68 8.88 9.4 4 4 1013.1 0.2 20.1 25.9 40.2 105.4 100.1 344.8
22 05:00 14.8 72 9.12 9.8 2 6 1026.3 0 20.6 26.9 42.0 110.1 105.1 361.9
22 04:50 14.8 72 9.12 9.8 4 6 1013.1 0 20.7 26.4 41.4 108.7 104.0 358.1
22 04:40 14.9 78 9.94 11.1 4 4 1013.1 0 22.4 27.8 44.7 117.5 114.9 396.2
22 04:30 14.5 82 10.2 11.5 6 7 1026.3 0 23.0 28.8 46.6 122.5 120.3 415.1
22 04:20 14.3 86 10.57 12 7 7 1013.1 0 23.8 29.0 47.7 125.5 124.5 429.9
22 04:10 13.9 89 10.67 12.2 4 4 1013.1 0 24.0 29.3 48.4 127.3 126.6 437.1
22 04:00 13.9 92 11.03 12.6 6 11 1026.5 0 24.8 30.5 50.6 133.1 133.1 459.8
22 03:50 13.8 92 10.96 12.5 11 11 1013.1 0 24.7 29.9 49.7 130.8 130.9 452.1
22 03:40 13.8 92 10.96 12.6 9 9 1013.1 0 24.7 29.9 49.7 130.8 130.9 452.1
22 03:30 13.9 92 11.03 12.6 6 9 1026.9 0 24.8 30.5 50.6 133.2 133.2 459.9
22 03:20 14.8 100 12.67 14.8 2 2 1013.1 0 28.3 32.6 56.6 149.4 154.1 533.2
22 03:10 14.1 100 12.14 14.1 6 6 1013.1 0 27.2 31.9 54.7 144.3 147.6 510.4
22 03:00 13.8 100 11.92 13.8 7 9 1026.9 0 26.7 32.2 54.7 144.0 146.5 506.3
22 02:50 14 100 12.06 14 7 9 1013.1 0 27.0 31.8 54.5 143.5 146.6 506.9
22 02:40 14.1 100 12.14 14.1 7 7 1013.1 0 27.2 31.9 54.7 144.3 147.6 510.4
22 02:30 14.4 100 12.36 14.4 7 11 1027 0 27.6 32.7 56.3 148.2 151.9 525.3
22 02:20 14.6 100 12.51 14.6 9 11 1013.1 0 27.9 32.4 56.1 147.8 152.1 526.2
22 02:10 14.8 100 12.67 14.8 13 15 1013.1 0 28.3 32.6 56.6 149.4 154.1 533.2
22 02:00 14.9 99 12.62 14.7 15 19 1027.2 0 28.1 33.0 57.1 150.4 154.8 535.5
22 01:50 14.5 96 11.94 13.8 15 17 1013.1 0 26.7 31.4 53.6 141.2 143.9 497.5
22 01:40 14.4 96 11.87 13.7 13 15 1013.1 0 26.6 31.3 53.3 140.5 143.0 494.5
22 01:30 14.7 95 11.96 13.9 13 17 1027.6 0 26.7 31.9 54.3 142.9 145.4 502.7
22 01:20 14.8 94 11.91 13.8 13 15 1013.1 0 26.6 31.2 53.2 140.3 142.9 494.0
22 01:10 14.9 95 12.11 14.1 13 17 1013.1 0 27.1 31.5 54.0 142.4 145.6 503.6
22 01:00 14.9 94 11.98 13.9 13 17 1027.7 0 26.7 31.9 54.2 142.8 145.3 502.4
22 00:50 15 94 12.05 14 15 17 1013.1 0 26.9 31.4 53.7 141.5 144.5 499.8
22 00:40 15 94 12.05 14 13 15 1013.1 0 26.9 31.4 53.7 141.5 144.5 499.8
22 00:30 14.7 93 11.71 13.6 13 17 1027.8 0 26.2 31.5 53.2 139.9 141.7 489.9
22 00:20 14.7 89 11.21 13 13 15 1013.1 0 25.1 30.0 50.2 132.2 132.9 459.3
22 00:10 14.5 88 10.95 12.5 11 11 1013.1 0 24.6 29.6 49.2 129.5 129.6 447.6
22 00:00 14.9 84 10.71 12.2 15 20 1027.9 0 24.0 29.7 48.7 127.9 127.0 438.4
21 23:50 15.5 88 11.63 13.5 13 15 1013.1 0 26.0 30.5 51.5 135.7 137.5 475.4
21 23:40 15.7 89 11.91 13.9 9 13 1013.1 0 26.6 30.9 52.6 138.6 141.2 488.2
21 23:30 15.4 92 12.09 14.1 15 22 1028 0 26.9 31.9 54.4 143.2 146.0 504.9
21 23:20 15.6 95 12.63 14.8 17 22 1013.1 0 28.1 32.2 55.9 147.3 151.9 525.6
21 23:10 15.4 97 12.74 14.9 19 22 1013.1 0 28.4 32.5 56.5 149.1 153.9 532.6
21 23:00 15.4 99 13.01 15.2 19 24 1028.1 0 28.9 33.6 58.6 154.4 159.7 552.8
21 22:50 15.4 97 12.74 15 22 28 1013.1 0 28.4 32.5 56.5 149.1 153.9 532.6
21 22:40 15.4 97 12.74 14.9 20 24 1013.1 0 28.4 32.5 56.5 149.1 153.9 532.6
21 22:30 15.4 95 12.48 14.6 19 22 1028.2 0 27.8 32.6 56.2 147.9 151.8 525.1
21 22:20 15.3 94 12.28 14.3 19 20 1013.1 0 27.4 31.7 54.5 143.7 147.3 509.6
21 22:10 15.5 92 12.16 14.3 15 20 1013.1 0 27.1 31.4 53.8 141.9 145.2 502.2
21 22:00 15.3 93 12.14 14.2 17 22 1028.4 0 27.1 32.1 54.7 144.0 147.0 508.3
21 21:50 15.4 92 12.09 14.2 17 20 1013.1 0 27.0 31.3 53.6 141.3 144.3 499.3
21 21:40 15.4 91 11.96 13.9 17 19 1013.1 0 26.7 31.1 53.0 139.7 142.5 492.7

Last Refresh: 22-Jan-2022 13:58:07

Bureau of Meteorology